Time;durP1;ratioP1;P1;durP2;ratioP2;P2;SDS_P1;SDS_P2;PMS_P1;PMS_P2;Temp;Humidity;BMP_temperature;BMP_pressure;BME280_temperature;BME280_humidity;BME280_pressure;Samples;Min_cycle;Max_cycle;Signal;HPM_P1;HPM_P2
2022/03/19 00:01:02;;;;;;;3.85;3.55;;;;;;;;;;5000420;28;20049;-59
2022/03/19 00:03:28;;;;;;;4.57;4.18;;;;;;;;;;5002881;28;20030;-58
2022/03/19 00:05:54;;;;;;;4.88;4.47;;;;;;;;;;5000498;28;20044;-55
2022/03/19 00:08:20;;;;;;;4.82;4.30;;;;;;;;;;5003314;28;20832;-55
2022/03/19 00:10:46;;;;;;;4.55;4.15;;;;;;;;;;5004156;28;20030;-56
2022/03/19 00:13:12;;;;;;;4.10;3.80;;;;;;;;;;4999978;28;20036;-55
2022/03/19 00:15:38;;;;;;;4.18;3.88;;;;;;;;;;5000867;28;20084;-56
2022/03/19 00:18:05;;;;;;;6.60;4.47;;;;;;;;;;5002382;28;20026;-51
2022/03/19 00:20:31;;;;;;;3.90;3.60;;;;;;;;;;5002239;28;20049;-51
2022/03/19 00:22:56;;;;;;;5.55;4.03;;;;;;;;;;5000864;28;20041;-54
2022/03/19 00:25:22;;;;;;;4.40;4.00;;;;;;;;;;5002339;28;20026;-55
2022/03/19 00:27:47;;;;;;;5.25;3.90;;;;;;;;;;5005440;28;20045;-55
2022/03/19 00:30:13;;;;;;;4.68;4.28;;;;;;;;;;4998839;28;20080;-54
2022/03/19 00:32:39;;;;;;;4.13;3.72;;;;;;;;;;5002611;28;20022;-56
2022/03/19 00:35:05;;;;;;;4.88;4.47;;;;;;;;;;5003182;28;20461;-56
2022/03/19 00:37:32;;;;;;;4.80;4.30;;;;;;;;;;5002456;28;20077;-59
2022/03/19 00:39:58;;;;;;;4.28;3.88;;;;;;;;;;5004160;28;20037;-59
2022/03/19 00:42:24;;;;;;;5.30;4.80;;;;;;;;;;5001290;28;20119;-59
2022/03/19 00:44:50;;;;;;;4.72;4.32;;;;;;;;;;5001569;28;20068;-60
2022/03/19 00:47:15;;;;;;;4.53;4.13;;;;;;;;;;5000937;28;20073;-59
2022/03/19 00:49:40;;;;;;;4.60;4.15;;;;;;;;;;5002774;28;20023;-59
2022/03/19 00:52:06;;;;;;;5.40;4.55;;;;;;;;;;5002250;28;20104;-59
2022/03/19 00:54:31;;;;;;;5.18;4.78;;;;;;;;;;5002614;28;20498;-59
2022/03/19 00:56:57;;;;;;;4.78;4.38;;;;;;;;;;5003456;28;20429;-59
2022/03/19 00:59:22;;;;;;;4.88;4.38;;;;;;;;;;5000835;28;20121;-60
2022/03/19 01:01:47;;;;;;;4.75;4.35;;;;;;;;;;4998955;28;20088;-59
2022/03/19 01:04:13;;;;;;;5.28;4.85;;;;;;;;;;5002718;28;20088;-59
2022/03/19 01:06:39;;;;;;;4.40;4.03;;;;;;;;;;5004017;28;20097;-59
2022/03/19 01:09:04;;;;;;;4.78;4.38;;;;;;;;;;5000512;28;20025;-59
2022/03/19 01:11:30;;;;;;;5.35;4.95;;;;;;;;;;4999086;28;20041;-59
2022/03/19 01:13:56;;;;;;;4.75;4.35;;;;;;;;;;4999423;28;20152;-59
2022/03/19 01:16:22;;;;;;;5.13;4.70;;;;;;;;;;5001995;28;20021;-57
2022/03/19 01:18:51;;;;;;;4.75;4.35;;;;;;;;;;4999865;28;20059;-59
2022/03/19 01:21:17;;;;;;;5.50;5.00;;;;;;;;;;5003482;28;20034;-59
2022/03/19 01:23:43;;;;;;;6.50;5.38;;;;;;;;;;5000591;28;20026;-59
2022/03/19 01:26:08;;;;;;;5.28;4.78;;;;;;;;;;5000312;28;20073;-59
2022/03/19 01:28:34;;;;;;;4.82;4.43;;;;;;;;;;4999907;28;20037;-59
2022/03/19 01:31:00;;;;;;;4.97;4.50;;;;;;;;;;4997116;28;20062;-59
2022/03/19 01:33:25;;;;;;;5.80;5.30;;;;;;;;;;5002403;28;20092;-60
2022/03/19 01:35:51;;;;;;;7.07;5.18;;;;;;;;;;5000703;28;20440;-59
2022/03/19 01:38:16;;;;;;;5.65;5.15;;;;;;;;;;5000598;28;20561;-59
2022/03/19 01:40:42;;;;;;;5.22;4.82;;;;;;;;;;4998851;28;20034;-59
2022/03/19 01:43:07;;;;;;;4.88;4.47;;;;;;;;;;4997991;28;20121;-59
2022/03/19 01:45:33;;;;;;;4.35;3.95;;;;;;;;;;5000012;28;20621;-58
2022/03/19 01:47:58;;;;;;;6.38;4.22;;;;;;;;;;5001447;28;20269;-61
2022/03/19 01:50:25;;;;;;;5.20;4.53;;;;;;;;;;4999827;28;20584;-58
2022/03/19 01:52:51;;;;;;;4.88;4.47;;;;;;;;;;4999311;28;20045;-55
2022/03/19 01:55:23;;;;;;;4.75;4.35;;;;;;;;;;5001628;28;20059;-54
2022/03/19 01:57:50;;;;;;;4.75;4.32;;;;;;;;;;5000210;28;20391;-53
2022/03/19 02:00:22;;;;;;;4.65;4.25;;;;;;;;;;4998351;28;20050;-58
2022/03/19 02:02:48;;;;;;;4.50;4.10;;;;;;;;;;5000675;28;20030;-58
2022/03/19 02:05:18;;;;;;;4.28;3.95;;;;;;;;;;4999572;28;20036;-58
2022/03/19 02:07:45;;;;;;;3.97;3.67;;;;;;;;;;5002778;28;20041;-58
2022/03/19 02:10:13;;;;;;;4.60;4.20;;;;;;;;;;5000441;28;20105;-58
2022/03/19 02:12:39;;;;;;;4.72;4.32;;;;;;;;;;4999523;28;20038;-58
2022/03/19 02:15:06;;;;;;;4.25;3.88;;;;;;;;;;5001620;28;20030;-58
2022/03/19 02:17:31;;;;;;;4.72;4.32;;;;;;;;;;4999192;28;20067;-57
2022/03/19 02:19:57;;;;;;;4.97;4.57;;;;;;;;;;5000391;28;20573;-58
2022/03/19 02:22:25;;;;;;;4.55;4.15;;;;;;;;;;5006201;28;20030;-54
2022/03/19 02:27:37;;;;;;;4.45;4.05;;;;;;;;;;5002536;28;20821;-50
2022/03/19 02:30:05;;;;;;;3.92;3.60;;;;;;;;;;4999455;28;20034;-54
2022/03/19 02:32:30;;;;;;;4.00;3.70;;;;;;;;;;4999634;28;20034;-54
2022/03/19 02:34:56;;;;;;;4.75;4.35;;;;;;;;;;5001093;28;20041;-57
2022/03/19 02:37:21;;;;;;;4.47;4.10;;;;;;;;;;5000940;28;20030;-55
2022/03/19 02:39:47;;;;;;;4.57;4.18;;;;;;;;;;4997376;28;20037;-58
2022/03/19 02:42:16;;;;;;;3.83;3.53;;;;;;;;;;4999036;28;20476;-58
2022/03/19 02:44:42;;;;;;;3.95;3.65;;;;;;;;;;5001022;28;20033;-52
2022/03/19 02:47:07;;;;;;;3.88;3.58;;;;;;;;;;5003412;28;20045;-52
2022/03/19 02:49:33;;;;;;;4.00;3.67;;;;;;;;;;4998049;28;20033;-52
2022/03/19 02:51:59;;;;;;;4.03;3.72;;;;;;;;;;4998027;28;20029;-58
2022/03/19 02:54:26;;;;;;;7.05;4.22;;;;;;;;;;5000535;28;20083;-57
2022/03/19 02:56:53;;;;;;;4.32;3.92;;;;;;;;;;5000722;28;20130;-53
2022/03/19 02:59:27;;;;;;;4.45;4.05;;;;;;;;;;4999185;28;20060;-52
2022/03/19 03:02:00;;;;;;;5.03;3.95;;;;;;;;;;5005585;28;20066;-59
2022/03/19 03:04:27;;;;;;;4.90;4.50;;;;;;;;;;4997067;28;20033;-58
2022/03/19 03:06:55;;;;;;;4.35;3.75;;;;;;;;;;4994849;28;20041;-58
2022/03/19 03:09:25;;;;;;;3.90;3.60;;;;;;;;;;4997678;28;20116;-59
2022/03/19 03:11:51;;;;;;;4.95;4.20;;;;;;;;;;4998758;28;20109;-56
2022/03/19 03:14:23;;;;;;;3.97;3.67;;;;;;;;;;4995981;28;20041;-57
2022/03/19 03:16:51;;;;;;;4.15;3.83;;;;;;;;;;4999509;28;20202;-58
2022/03/19 03:19:17;;;;;;;4.50;4.10;;;;;;;;;;4998681;28;20026;-58
2022/03/19 03:21:43;;;;;;;5.38;4.88;;;;;;;;;;4998848;28;20089;-58
2022/03/19 03:24:09;;;;;;;4.68;4.28;;;;;;;;;;4998354;28;20480;-58
2022/03/19 03:26:36;;;;;;;6.30;5.45;;;;;;;;;;5004243;28;20477;-57
2022/03/19 03:29:02;;;;;;;4.82;4.43;;;;;;;;;;5001925;28;20117;-57
2022/03/19 03:31:28;;;;;;;4.20;3.85;;;;;;;;;;5004106;28;20190;-57
2022/03/19 03:33:54;;;;;;;4.72;4.32;;;;;;;;;;5005326;28;20042;-58
2022/03/19 03:36:20;;;;;;;5.18;4.78;;;;;;;;;;5010779;28;20397;-58
2022/03/19 03:38:46;;;;;;;4.20;3.80;;;;;;;;;;5004093;28;20105;-58
2022/03/19 03:41:12;;;;;;;4.95;4.45;;;;;;;;;;5003487;28;20153;-58
2022/03/19 03:43:37;;;;;;;4.43;4.03;;;;;;;;;;5001920;28;20069;-58
2022/03/19 03:46:04;;;;;;;5.20;4.70;;;;;;;;;;5000019;28;20034;-58
2022/03/19 03:48:31;;;;;;;5.13;4.07;;;;;;;;;;5002190;28;20138;-58
2022/03/19 03:50:57;;;;;;;4.68;4.20;;;;;;;;;;5003050;28;20057;-58
2022/03/19 03:53:26;;;;;;;4.60;4.20;;;;;;;;;;5003032;28;20046;-58
2022/03/19 03:55:52;;;;;;;4.50;4.10;;;;;;;;;;5003822;28;20045;-58
2022/03/19 03:58:17;;;;;;;5.35;4.85;;;;;;;;;;5004298;28;20030;-58
2022/03/19 04:00:43;;;;;;;5.18;4.78;;;;;;;;;;5002582;28;20030;-58
2022/03/19 04:03:08;;;;;;;4.57;4.05;;;;;;;;;;4999539;28;20026;-58
2022/03/19 04:05:34;;;;;;;6.40;3.78;;;;;;;;;;5001298;28;20518;-58
2022/03/19 04:08:01;;;;;;;4.82;4.43;;;;;;;;;;5002039;28;20037;-58
2022/03/19 04:10:27;;;;;;;4.57;4.18;;;;;;;;;;5001132;28;20029;-58
2022/03/19 04:12:52;;;;;;;4.20;3.80;;;;;;;;;;5003740;28;20107;-58
2022/03/19 04:15:18;;;;;;;6.15;4.15;;;;;;;;;;5000758;28;20026;-58
2022/03/19 04:17:44;;;;;;;4.78;4.25;;;;;;;;;;5002956;28;20185;-58
2022/03/19 04:20:10;;;;;;;4.40;4.00;;;;;;;;;;5000466;28;20580;-58
2022/03/19 04:22:37;;;;;;;4.85;4.43;;;;;;;;;;5000971;28;20030;-56
2022/03/19 04:25:04;;;;;;;4.65;4.25;;;;;;;;;;5004510;28;20414;-55
2022/03/19 04:27:30;;;;;;;4.95;4.38;;;;;;;;;;5000522;28;20074;-55
2022/03/19 04:29:56;;;;;;;5.38;4.88;;;;;;;;;;5000449;28;20132;-54
2022/03/19 04:32:21;;;;;;;4.75;4.32;;;;;;;;;;5003516;28;20034;-54
2022/03/19 04:34:47;;;;;;;4.65;4.25;;;;;;;;;;5003476;28;20030;-58
2022/03/19 04:37:12;;;;;;;4.70;4.28;;;;;;;;;;4999617;28;20098;-58
2022/03/19 04:39:38;;;;;;;6.63;5.63;;;;;;;;;;5000378;28;20587;-58
2022/03/19 04:42:04;;;;;;;5.25;4.57;;;;;;;;;;5002048;28;20066;-59
2022/03/19 04:44:29;;;;;;;5.40;4.43;;;;;;;;;;5001784;28;20026;-59
2022/03/19 04:46:55;;;;;;;4.68;4.13;;;;;;;;;;5001267;28;20034;-58
2022/03/19 04:49:20;;;;;;;5.38;4.88;;;;;;;;;;5005105;28;20026;-59
2022/03/19 04:51:48;;;;;;;3.72;3.42;;;;;;;;;;5002516;28;20101;-52
2022/03/19 04:54:16;;;;;;;6.15;4.53;;;;;;;;;;5002332;28;20034;-52
2022/03/19 04:56:41;;;;;;;3.92;3.63;;;;;;;;;;5004786;28;20083;-58
2022/03/19 04:59:11;;;;;;;4.57;4.18;;;;;;;;;;5001517;28;20374;-51
2022/03/19 05:01:37;;;;;;;5.20;4.80;;;;;;;;;;4998127;28;20642;-58
2022/03/19 05:04:03;;;;;;;4.50;4.10;;;;;;;;;;4999465;28;20120;-59
2022/03/19 05:06:28;;;;;;;7.82;4.50;;;;;;;;;;5003218;28;20045;-59
2022/03/19 05:11:38;;;;;;;4.63;4.18;;;;;;;;;;5000557;28;20133;-58
2022/03/19 05:14:04;;;;;;;4.20;3.80;;;;;;;;;;5000849;28;20547;-58
2022/03/19 05:16:30;;;;;;;4.22;3.75;;;;;;;;;;5001581;28;20034;-62
2022/03/19 05:18:56;;;;;;;3.80;3.50;;;;;;;;;;5000693;28;20038;-58
2022/03/19 05:21:21;;;;;;;8.75;4.70;;;;;;;;;;5002083;28;20049;-59
2022/03/19 05:23:47;;;;;;;5.78;5.15;;;;;;;;;;5002807;28;20149;-50
2022/03/19 05:26:13;;;;;;;3.80;3.40;;;;;;;;;;5000884;28;20376;-53
2022/03/19 05:28:38;;;;;;;3.92;3.60;;;;;;;;;;5000266;28;20109;-50
2022/03/19 05:31:04;;;;;;;4.57;4.18;;;;;;;;;;5001302;28;20037;-51
2022/03/19 05:36:14;;;;;;;4.68;4.28;;;;;;;;;;5001811;28;20025;-54
2022/03/19 05:38:39;;;;;;;3.72;3.42;;;;;;;;;;4999408;28;20075;-53
2022/03/19 05:41:05;;;;;;;4.57;4.18;;;;;;;;;;5000364;28;20040;-59
2022/03/19 05:43:30;;;;;;;4.05;3.72;;;;;;;;;;5001303;28;20038;-59
2022/03/19 05:45:56;;;;;;;4.40;4.05;;;;;;;;;;5001281;28;20045;-59
2022/03/19 05:48:21;;;;;;;4.20;3.80;;;;;;;;;;5000337;28;20034;-59
2022/03/19 05:50:46;;;;;;;3.83;3.53;;;;;;;;;;4998167;28;20034;-59
2022/03/19 05:53:12;;;;;;;4.47;4.07;;;;;;;;;;4999425;28;20058;-53
2022/03/19 05:55:37;;;;;;;4.68;4.28;;;;;;;;;;4998789;28;20121;-54
2022/03/19 05:58:03;;;;;;;4.35;3.95;;;;;;;;;;5000881;28;20540;-55
2022/03/19 06:00:28;;;;;;;5.07;4.55;;;;;;;;;;4990714;28;20034;-54
2022/03/19 06:02:53;;;;;;;4.45;4.05;;;;;;;;;;4999780;28;20054;-59
2022/03/19 06:05:19;;;;;;;5.05;4.55;;;;;;;;;;4998934;28;20021;-59
2022/03/19 06:07:44;;;;;;;4.25;3.88;;;;;;;;;;5000554;28;20121;-52
2022/03/19 06:10:10;;;;;;;3.75;3.45;;;;;;;;;;5005084;28;20149;-55
2022/03/19 06:12:35;;;;;;;4.60;4.10;;;;;;;;;;4998796;28;20120;-56
2022/03/19 06:15:01;;;;;;;4.10;3.70;;;;;;;;;;4995752;28;20186;-55
2022/03/19 06:17:26;;;;;;;26.40;4.13;;;;;;;;;;5001531;28;20052;-55
2022/03/19 06:19:54;;;;;;;4.78;4.00;;;;;;;;;;5000442;28;20113;-55
2022/03/19 06:22:19;;;;;;;4.07;3.78;;;;;;;;;;4999895;28;20053;-58
2022/03/19 06:24:44;;;;;;;4.25;3.92;;;;;;;;;;5001076;28;20077;-58
2022/03/19 06:27:10;;;;;;;5.60;3.65;;;;;;;;;;4997324;28;20456;-58
2022/03/19 06:29:35;;;;;;;4.38;3.97;;;;;;;;;;4999250;28;20112;-58
2022/03/19 06:32:00;;;;;;;5.53;5.03;;;;;;;;;;5005296;28;20038;-58
2022/03/19 06:34:29;;;;;;;6.45;4.22;;;;;;;;;;4998099;28;20030;-58
2022/03/19 06:39:39;;;;;;;4.65;4.25;;;;;;;;;;4999203;28;20039;-58
2022/03/19 06:42:04;;;;;;;4.43;3.58;;;;;;;;;;4997788;28;20034;-58
2022/03/19 06:44:30;;;;;;;4.05;3.75;;;;;;;;;;4999002;28;20676;-59
2022/03/19 06:46:55;;;;;;;5.20;4.70;;;;;;;;;;5000536;28;20026;-57
2022/03/19 06:49:20;;;;;;;3.70;3.40;;;;;;;;;;4999040;28;20423;-54
2022/03/19 06:51:46;;;;;;;4.57;4.15;;;;;;;;;;4997711;28;20602;-51
2022/03/19 06:54:11;;;;;;;4.00;3.70;;;;;;;;;;5000820;28;20037;-52
2022/03/19 06:56:37;;;;;;;3.95;3.65;;;;;;;;;;4999856;28;20073;-56
2022/03/19 06:59:02;;;;;;;4.35;3.95;;;;;;;;;;4999210;28;20034;-55
2022/03/19 07:01:27;;;;;;;5.32;4.63;;;;;;;;;;5001160;28;20105;-58
2022/03/19 07:03:53;;;;;;;4.72;3.70;;;;;;;;;;5001402;28;20113;-56
2022/03/19 07:06:18;;;;;;;4.18;3.88;;;;;;;;;;5003869;28;20448;-58
2022/03/19 07:08:44;;;;;;;5.00;4.50;;;;;;;;;;5000629;28;20042;-56
2022/03/19 07:11:10;;;;;;;4.30;3.85;;;;;;;;;;5002161;28;20431;-57
2022/03/19 07:13:36;;;;;;;4.13;3.75;;;;;;;;;;5001802;28;20042;-58
2022/03/19 07:16:02;;;;;;;3.97;3.67;;;;;;;;;;4999086;28;20033;-54
2022/03/19 07:18:27;;;;;;;5.85;4.43;;;;;;;;;;4998306;28;20384;-56
2022/03/19 07:20:53;;;;;;;4.20;3.90;;;;;;;;;;5000048;28;20045;-56
2022/03/19 07:23:19;;;;;;;5.65;5.10;;;;;;;;;;4997300;28;20456;-55
2022/03/19 07:25:44;;;;;;;5.40;4.90;;;;;;;;;;4996813;28;20114;-56
2022/03/19 07:28:12;;;;;;;4.50;4.10;;;;;;;;;;4998601;28;20964;-56
2022/03/19 07:30:38;;;;;;;4.25;3.95;;;;;;;;;;4997621;28;20735;-56
2022/03/19 07:33:04;;;;;;;4.50;4.10;;;;;;;;;;4997844;28;20118;-56
2022/03/19 07:35:30;;;;;;;4.97;4.57;;;;;;;;;;5000277;28;20022;-57
2022/03/19 07:37:57;;;;;;;5.28;4.88;;;;;;;;;;4996967;28;20030;-56
2022/03/19 07:43:09;;;;;;;5.25;4.85;;;;;;;;;;5000412;28;20097;-55
2022/03/19 07:45:35;;;;;;;5.47;4.97;;;;;;;;;;4997690;28;20045;-57
2022/03/19 07:48:02;;;;;;;4.80;4.40;;;;;;;;;;5001068;28;20038;-59
2022/03/19 07:50:27;;;;;;;5.53;5.03;;;;;;;;;;5000911;28;20033;-57
2022/03/19 07:52:53;;;;;;;4.88;4.47;;;;;;;;;;4998705;28;20035;-57
2022/03/19 07:55:19;;;;;;;5.22;4.82;;;;;;;;;;4998849;28;20062;-57
2022/03/19 07:57:44;;;;;;;5.05;4.65;;;;;;;;;;4998127;28;20069;-57
2022/03/19 08:00:12;;;;;;;6.35;5.80;;;;;;;;;;4997181;28;20029;-58
2022/03/19 08:02:41;;;;;;;5.93;5.53;;;;;;;;;;4996772;28;20113;-57
2022/03/19 08:05:07;;;;;;;5.60;5.20;;;;;;;;;;5000932;28;20109;-57
2022/03/19 08:07:32;;;;;;;5.35;4.95;;;;;;;;;;5000166;28;20108;-58
2022/03/19 08:09:58;;;;;;;5.22;4.72;;;;;;;;;;4998107;28;20062;-58
2022/03/19 08:12:25;;;;;;;6.60;6.05;;;;;;;;;;5001321;28;20084;-58
2022/03/19 08:14:51;;;;;;;5.75;5.25;;;;;;;;;;5001264;28;20122;-57
2022/03/19 08:17:18;;;;;;;5.97;5.55;;;;;;;;;;5000920;28;20073;-56
2022/03/19 08:19:44;;;;;;;6.20;5.70;;;;;;;;;;5000687;28;20021;-58
2022/03/19 08:22:09;;;;;;;6.32;5.85;;;;;;;;;;5001725;28;20425;-59
2022/03/19 08:24:36;;;;;;;5.75;5.35;;;;;;;;;;5000532;28;20038;-58
2022/03/19 08:27:01;;;;;;;6.40;5.90;;;;;;;;;;5001332;28;20109;-58
2022/03/19 08:29:27;;;;;;;6.55;5.90;;;;;;;;;;5000936;28;20555;-57
2022/03/19 08:31:54;;;;;;;11.05;6.07;;;;;;;;;;4999715;28;20030;-57
2022/03/19 08:34:19;;;;;;;6.10;5.50;;;;;;;;;;5003931;28;20029;-57
2022/03/19 08:36:45;;;;;;;5.93;5.43;;;;;;;;;;5000225;28;20371;-57
2022/03/19 08:41:54;;;;;;;8.73;5.75;;;;;;;;;;5004785;28;20022;-56
2022/03/19 08:44:20;;;;;;;4.65;4.25;;;;;;;;;;5004098;28;20121;-54
2022/03/19 08:46:46;;;;;;;5.13;4.70;;;;;;;;;;5002290;28;20077;-56
2022/03/19 08:49:11;;;;;;;5.22;4.78;;;;;;;;;;5002315;28;20472;-57
2022/03/19 08:51:39;;;;;;;5.93;4.97;;;;;;;;;;5000114;28;20084;-57
2022/03/19 08:54:06;;;;;;;4.88;4.47;;;;;;;;;;5000916;28;20125;-56
2022/03/19 08:56:33;;;;;;;5.05;4.65;;;;;;;;;;5003263;28;20026;-57
2022/03/19 08:59:00;;;;;;;5.68;4.97;;;;;;;;;;5002021;28;20471;-57
2022/03/19 09:01:25;;;;;;;6.50;4.85;;;;;;;;;;5003795;28;20099;-54
2022/03/19 09:03:51;;;;;;;5.35;4.93;;;;;;;;;;5008433;28;20038;-57
2022/03/19 09:06:17;;;;;;;5.22;4.80;;;;;;;;;;5003008;28;20112;-57
2022/03/19 09:08:42;;;;;;;6.60;5.95;;;;;;;;;;5000682;28;20453;-56
2022/03/19 09:11:08;;;;;;;5.15;4.72;;;;;;;;;;5006282;28;20026;-56
2022/03/19 09:13:33;;;;;;;4.93;4.47;;;;;;;;;;4981368;28;20046;-56
2022/03/19 09:15:59;;;;;;;5.50;5.00;;;;;;;;;;5001000;28;20034;-56
2022/03/19 09:18:26;;;;;;;5.20;4.80;;;;;;;;;;5001076;28;20061;-57
2022/03/19 09:20:51;;;;;;;7.38;5.00;;;;;;;;;;5002173;28;20050;-57
2022/03/19 09:23:17;;;;;;;5.47;5.00;;;;;;;;;;4998265;28;20034;-56
2022/03/19 09:25:42;;;;;;;4.93;4.53;;;;;;;;;;5002584;28;20029;-56
2022/03/19 09:28:08;;;;;;;5.80;5.28;;;;;;;;;;5000921;28;20061;-55
2022/03/19 09:30:34;;;;;;;4.85;4.45;;;;;;;;;;4999548;28;20114;-56
2022/03/19 09:33:00;;;;;;;9.82;4.90;;;;;;;;;;5000569;28;20030;-56
2022/03/19 09:35:25;;;;;;;5.60;5.15;;;;;;;;;;4999046;28;20057;-56
2022/03/19 09:37:51;;;;;;;6.32;5.72;;;;;;;;;;5005249;28;20213;-55
2022/03/19 09:40:17;;;;;;;5.32;4.65;;;;;;;;;;5001908;28;20034;-57
2022/03/19 09:42:52;;;;;;;8.70;5.03;;;;;;;;;;5000576;28;20037;-57
2022/03/19 09:45:19;;;;;;;7.70;5.47;;;;;;;;;;4998786;28;20042;-57
2022/03/19 09:47:45;;;;;;;4.63;4.22;;;;;;;;;;5000407;28;20100;-57
2022/03/19 09:50:10;;;;;;;4.75;4.35;;;;;;;;;;4998793;28;20034;-57
2022/03/19 09:52:36;;;;;;;5.95;4.82;;;;;;;;;;4997833;28;20036;-57
2022/03/19 09:55:03;;;;;;;5.25;4.80;;;;;;;;;;5007175;28;20042;-56
2022/03/19 09:57:29;;;;;;;5.07;4.68;;;;;;;;;;5000244;28;20037;-57
2022/03/19 09:59:54;;;;;;;5.78;5.28;;;;;;;;;;4998499;28;20372;-57
2022/03/19 10:02:20;;;;;;;6.03;5.53;;;;;;;;;;4997113;28;20478;-57
2022/03/19 10:04:45;;;;;;;5.18;4.78;;;;;;;;;;4999526;28;20029;-57
2022/03/19 10:09:56;;;;;;;5.25;4.78;;;;;;;;;;4998075;28;20070;-57
2022/03/19 10:12:30;;;;;;;4.95;4.45;;;;;;;;;;4998630;28;20413;-56
2022/03/19 10:14:57;;;;;;;5.15;4.53;;;;;;;;;;5003332;28;20052;-56
2022/03/19 10:17:30;;;;;;;9.13;5.70;;;;;;;;;;5005926;28;20064;-56
2022/03/19 10:20:14;;;;;;;5.10;4.70;;;;;;;;;;5002785;28;20031;-57
2022/03/19 10:22:41;;;;;;;5.55;5.15;;;;;;;;;;4998691;28;20096;-57
2022/03/19 10:25:09;;;;;;;6.15;5.55;;;;;;;;;;4997114;28;20763;-57
2022/03/19 10:27:37;;;;;;;5.63;5.07;;;;;;;;;;4999208;28;20061;-57
2022/03/19 10:30:10;;;;;;;9.65;5.70;;;;;;;;;;5000644;28;20042;-57
2022/03/19 10:32:39;;;;;;;7.38;6.78;;;;;;;;;;4999071;28;20029;-57
2022/03/19 10:35:05;;;;;;;6.13;5.72;;;;;;;;;;4997639;28;20030;-58
2022/03/19 10:37:34;;;;;;;5.90;5.40;;;;;;;;;;5002383;28;20065;-57
2022/03/19 10:40:00;;;;;;;6.07;5.63;;;;;;;;;;5001013;28;20049;-57
2022/03/19 10:42:25;;;;;;;6.75;6.25;;;;;;;;;;5000658;28;20030;-59
2022/03/19 10:44:52;;;;;;;7.00;6.50;;;;;;;;;;4999670;28;20253;-58
2022/03/19 10:47:22;;;;;;;5.47;5.07;;;;;;;;;;4999118;28;20726;-58
2022/03/19 10:49:47;;;;;;;6.70;6.20;;;;;;;;;;4999253;28;20041;-57
2022/03/19 10:52:17;;;;;;;5.70;5.20;;;;;;;;;;5001226;28;20029;-57
2022/03/19 10:54:44;;;;;;;6.47;5.97;;;;;;;;;;4997783;28;20105;-57
2022/03/19 10:57:09;;;;;;;6.38;5.88;;;;;;;;;;5028805;28;20030;-57
2022/03/19 10:59:35;;;;;;;5.85;5.35;;;;;;;;;;4999522;28;20540;-58
2022/03/19 11:02:02;;;;;;;5.35;4.95;;;;;;;;;;4999464;28;20026;-57
2022/03/19 11:04:30;;;;;;;5.95;5.55;;;;;;;;;;4999018;28;20080;-58
2022/03/19 11:06:58;;;;;;;5.97;5.50;;;;;;;;;;4999637;28;20060;-59
2022/03/19 11:09:27;;;;;;;6.40;5.90;;;;;;;;;;5000345;28;20176;-57
2022/03/19 11:12:01;;;;;;;7.15;6.57;;;;;;;;;;5001396;28;20467;-57
2022/03/19 11:14:28;;;;;;;5.60;5.20;;;;;;;;;;5000734;28;20481;-57
2022/03/19 11:17:25;;;;;;;8.05;7.25;;;;;;;;;;5006041;28;20061;-57
2022/03/19 11:19:52;;;;;;;5.93;5.53;;;;;;;;;;4992944;28;20542;-57
2022/03/19 11:22:18;;;;;;;5.97;5.47;;;;;;;;;;4999728;28;20026;-56
2022/03/19 11:24:53;;;;;;;5.40;5.00;;;;;;;;;;4995930;28;20038;-58
2022/03/19 11:27:19;;;;;;;5.78;5.28;;;;;;;;;;5001088;28;20418;-57
2022/03/19 11:29:45;;;;;;;6.38;5.88;;;;;;;;;;5003065;28;20025;-57
2022/03/19 11:32:21;;;;;;;5.65;5.20;;;;;;;;;;5000279;28;20026;-57
2022/03/19 11:34:49;;;;;;;6.00;5.57;;;;;;;;;;5000344;28;20022;-57
2022/03/19 11:37:14;;;;;;;6.78;6.28;;;;;;;;;;5000904;28;20049;-57
2022/03/19 11:40:01;;;;;;;4.93;4.53;;;;;;;;;;4999823;28;20033;-58
2022/03/19 11:42:31;;;;;;;5.55;5.05;;;;;;;;;;5006539;28;20026;-57
2022/03/19 11:45:07;;;;;;;5.63;5.13;;;;;;;;;;5013179;28;20034;-57
2022/03/19 11:47:35;;;;;;;6.45;5.85;;;;;;;;;;5003998;28;20440;-58
2022/03/19 11:50:06;;;;;;;5.70;5.25;;;;;;;;;;5003318;28;20038;-58
2022/03/19 11:52:31;;;;;;;5.82;5.43;;;;;;;;;;5001482;28;20117;-57
2022/03/19 11:55:00;;;;;;;5.38;4.97;;;;;;;;;;5001237;28;20037;-56
2022/03/19 11:57:26;;;;;;;5.65;5.25;;;;;;;;;;5001941;28;20041;-57
2022/03/19 11:59:58;;;;;;;8.77;7.15;;;;;;;;;;5003544;28;20034;-58
2022/03/19 12:02:23;;;;;;;6.13;5.72;;;;;;;;;;5005100;28;20022;-56
2022/03/19 12:04:52;;;;;;;6.85;6.13;;;;;;;;;;5004121;28;20042;-57
2022/03/19 12:07:42;;;;;;;6.10;5.70;;;;;;;;;;5001828;28;20057;-58
2022/03/19 12:10:12;;;;;;;6.80;6.30;;;;;;;;;;5000459;28;20099;-56
2022/03/19 12:12:39;;;;;;;7.90;6.53;;;;;;;;;;5000622;28;20027;-58
2022/03/19 12:15:32;;;;;;;6.88;6.38;;;;;;;;;;5001787;28;20091;-57
2022/03/19 12:18:39;;;;;;;6.65;6.20;;;;;;;;;;5002677;28;20116;-57
2022/03/19 12:21:10;;;;;;;6.25;5.75;;;;;;;;;;4992156;28;20053;-58
2022/03/19 12:24:11;;;;;;;6.97;6.47;;;;;;;;;;4999029;28;20096;-58
2022/03/19 12:26:49;;;;;;;8.10;7.50;;;;;;;;;;5003021;28;20113;-58
2022/03/19 12:29:17;;;;;;;7.38;6.88;;;;;;;;;;5001629;28;20053;-58
2022/03/19 12:31:48;;;;;;;7.32;6.78;;;;;;;;;;5008142;28;20042;-58
2022/03/19 12:34:22;;;;;;;8.45;7.95;;;;;;;;;;5000722;28;20161;-58
2022/03/19 12:36:48;;;;;;;9.55;8.82;;;;;;;;;;5001780;28;20043;-58
2022/03/19 12:39:13;;;;;;;7.68;7.18;;;;;;;;;;5000372;28;20455;-58
2022/03/19 12:41:41;;;;;;;8.00;7.50;;;;;;;;;;5000108;28;20034;-58
2022/03/19 12:44:16;;;;;;;8.38;7.57;;;;;;;;;;5000983;28;20376;-58
2022/03/19 12:46:42;;;;;;;7.22;6.72;;;;;;;;;;5000204;28;20040;-57
2022/03/19 12:49:15;;;;;;;7.47;6.97;;;;;;;;;;5002470;28;20038;-57
2022/03/19 12:51:46;;;;;;;7.85;7.35;;;;;;;;;;4996163;28;20025;-58
2022/03/19 12:54:19;;;;;;;8.48;7.78;;;;;;;;;;5000052;28;20376;-58
2022/03/19 12:56:46;;;;;;;7.55;7.05;;;;;;;;;;4997606;28;20356;-57
2022/03/19 12:59:17;;;;;;;7.57;7.07;;;;;;;;;;5000571;28;20029;-58
2022/03/19 13:01:43;;;;;;;8.38;7.88;;;;;;;;;;4998400;28;20033;-58
2022/03/19 13:04:08;;;;;;;7.55;7.05;;;;;;;;;;5000024;28;20030;-57
2022/03/19 13:06:41;;;;;;;8.63;7.97;;;;;;;;;;4998693;28;20042;-57
2022/03/19 13:09:08;;;;;;;8.05;7.47;;;;;;;;;;5003824;28;20042;-57
2022/03/19 13:11:44;;;;;;;8.27;7.68;;;;;;;;;;5005745;28;20080;-57
2022/03/19 13:14:19;;;;;;;8.15;7.63;;;;;;;;;;5002931;28;20042;-57
2022/03/19 13:16:51;;;;;;;8.32;7.63;;;;;;;;;;4999520;28;20204;-57
2022/03/19 13:19:17;;;;;;;7.38;6.88;;;;;;;;;;4998610;28;20117;-56
2022/03/19 13:21:45;;;;;;;7.75;7.25;;;;;;;;;;4999303;28;20034;-58
2022/03/19 13:24:12;;;;;;;13.90;10.52;;;;;;;;;;5000924;28;20034;-58
2022/03/19 13:26:37;;;;;;;7.93;7.35;;;;;;;;;;5003384;28;20063;-54
2022/03/19 13:29:15;;;;;;;8.60;7.90;;;;;;;;;;5002326;28;20041;-58
2022/03/19 13:31:43;;;;;;;7.47;6.80;;;;;;;;;;5001728;28;20029;-57
2022/03/19 13:34:28;;;;;;;8.20;7.70;;;;;;;;;;5001833;28;20029;-57
2022/03/19 13:36:57;;;;;;;7.93;7.38;;;;;;;;;;5000179;28;20109;-57
2022/03/19 13:39:25;;;;;;;7.78;7.28;;;;;;;;;;5002362;28;20042;-57
2022/03/19 13:41:52;;;;;;;7.70;7.20;;;;;;;;;;4999955;28;20109;-57
2022/03/19 13:44:35;;;;;;;7.93;7.43;;;;;;;;;;5002415;28;20434;-58
2022/03/19 13:47:03;;;;;;;7.55;7.05;;;;;;;;;;4996946;28;20042;-57
2022/03/19 13:49:29;;;;;;;7.35;6.85;;;;;;;;;;5001146;28;20053;-58
2022/03/19 13:51:54;;;;;;;8.18;7.57;;;;;;;;;;4998837;28;20432;-57
2022/03/19 13:54:20;;;;;;;6.93;6.45;;;;;;;;;;5001079;28;20576;-53
2022/03/19 13:56:53;;;;;;;6.50;6.00;;;;;;;;;;4999002;28;20056;-56
2022/03/19 13:59:31;;;;;;;7.53;7.03;;;;;;;;;;4998403;28;20022;-57
2022/03/19 14:02:01;;;;;;;7.47;6.82;;;;;;;;;;5005351;28;20034;-56
2022/03/19 14:04:26;;;;;;;6.85;6.35;;;;;;;;;;5000514;28;20041;-56
2022/03/19 14:06:53;;;;;;;7.25;6.75;;;;;;;;;;4999684;28;20049;-56
2022/03/19 14:09:20;;;;;;;6.90;6.40;;;;;;;;;;4996961;28;20121;-57
2022/03/19 14:11:47;;;;;;;5.97;5.57;;;;;;;;;;4999246;28;20101;-56
2022/03/19 14:14:17;;;;;;;6.63;6.07;;;;;;;;;;5001011;28;20865;-57
2022/03/19 14:16:55;;;;;;;6.07;5.68;;;;;;;;;;4996863;28;20057;-57
2022/03/19 14:19:21;;;;;;;6.30;5.90;;;;;;;;;;5000606;28;20038;-58
2022/03/19 14:21:46;;;;;;;6.00;5.60;;;;;;;;;;4999221;28;20031;-58
2022/03/19 14:24:11;;;;;;;6.15;5.75;;;;;;;;;;4997273;28;20061;-57
2022/03/19 14:26:37;;;;;;;6.20;5.70;;;;;;;;;;5003058;28;20751;-57
2022/03/19 14:29:02;;;;;;;6.70;6.20;;;;;;;;;;5004144;28;20049;-55
2022/03/19 14:31:28;;;;;;;7.60;6.00;;;;;;;;;;4994199;28;20092;-57
2022/03/19 14:33:53;;;;;;;6.53;6.03;;;;;;;;;;4998777;28;20030;-57
2022/03/19 14:36:19;;;;;;;5.70;5.30;;;;;;;;;;4997063;28;20022;-57
2022/03/19 14:38:46;;;;;;;6.75;6.28;;;;;;;;;;4999457;28;20045;-57
2022/03/19 14:41:16;;;;;;;5.88;5.47;;;;;;;;;;5000512;28;20238;-54
2022/03/19 14:43:46;;;;;;;10.90;6.03;;;;;;;;;;4999240;28;20075;-57
2022/03/19 14:46:12;;;;;;;6.15;5.72;;;;;;;;;;4996732;28;20049;-57
2022/03/19 14:48:43;;;;;;;6.70;6.20;;;;;;;;;;4997265;28;20038;-56
2022/03/19 14:51:09;;;;;;;5.80;5.40;;;;;;;;;;4998360;28;20046;-56
2022/03/19 14:53:35;;;;;;;6.47;5.97;;;;;;;;;;4999917;28;20041;-57
2022/03/19 14:56:02;;;;;;;6.47;5.97;;;;;;;;;;4996153;28;20551;-57
2022/03/19 14:58:28;;;;;;;5.80;5.40;;;;;;;;;;4997007;28;20363;-56
2022/03/19 15:00:53;;;;;;;5.20;4.80;;;;;;;;;;4997505;28;20057;-57
2022/03/19 15:03:20;;;;;;;6.40;5.88;;;;;;;;;;5000259;28;20113;-55